Sealand Washington — 9HA3421 — position and weather

sailwx.info

Track history (hours):
 
Tides and Currents Weather Stations Pressure Air Temp Water Temp Dewpoint Dewpoint Depression Visibility Wind Speed Wind Dir Waves Ship Positions

Sealand Washington

Last reported at 2018-Jan-04 22:59 UTC. Time now 2018-Jan-19 05:58 UTC.
Position N 37°47' W 009°38'.
Warning: this ship's position is 14 days out of date.

Length 304 m; draft 13.9 m.

Type: Ship (hazmat cat A). MMSI: 229577000.

Date/timePositionNaut miles runAvg speedWind from/ knotsBaromVisibWave heightAir tempDewpointWater temp
2018-Jan-04 22:59N 37°47' W 009°38'917.9
2018-Jan-04 22:30N 37°49' W 009°28'917.9
2018-Jan-04 22:00N 37°51' W 009°17'917.7
2018-Jan-04 21:30N 37°53' W 009°06'816.9
2018-Jan-04 21:00N 37°55' W 008°55'4 7.6
2018-Jan-04 20:30N 37°56' W 008°51'0 0.2
2018-Jan-04 20:00N 37°56' W 008°51'0 0.0
2018-Jan-04 19:30N 37°56' W 008°51'0 0.0
2018-Jan-04 19:00N 37°56' W 008°51'0 0.0
2018-Jan-04 18:30N 37°56' W 008°51'0 0.0
2018-Jan-04 18:00N 37°56' W 008°51'0 0.0
2018-Jan-04 17:30N 37°56' W 008°51'0 0.0
2018-Jan-04 17:00N 37°56' W 008°51'0 0.0
2018-Jan-04 16:30N 37°56' W 008°51'0 0.0
2018-Jan-04 16:01N 37°56' W 008°51'0 0.0
2018-Jan-04 15:30N 37°56' W 008°51'0 0.0
2018-Jan-04 15:00N 37°56' W 008°51'0 0.0
2018-Jan-04 14:31N 37°56' W 008°51'0 0.0
2018-Jan-04 14:01N 37°56' W 008°51'0 0.0
2018-Jan-04 13:30N 37°56' W 008°51'0 0.0
2018-Jan-04 13:01N 37°56' W 008°51'0 0.0
2018-Jan-04 12:30N 37°56' W 008°51'0 0.0
2018-Jan-04 12:00N 37°56' W 008°51'0 0.0
2018-Jan-04 11:30N 37°56' W 008°51'0 0.0
2018-Jan-04 11:00N 37°56' W 008°51'0 0.0
2018-Jan-04 10:30N 37°56' W 008°51'0 0.0
2018-Jan-04 10:00N 37°56' W 008°51'0 0.0
2018-Jan-04 09:30N 37°56' W 008°51'0 0.0
2018-Jan-04 09:00N 37°56' W 008°51'0 0.0
2018-Jan-04 08:31N 37°56' W 008°51'0 0.0
2018-Jan-04 08:00N 37°56' W 008°51'0 0.0
2018-Jan-04 07:31N 37°56' W 008°51'0 0.0
2018-Jan-04 07:00N 37°56' W 008°51'0 0.0
2018-Jan-04 06:31N 37°56' W 008°51'0 0.0
2018-Jan-04 06:00N 37°56' W 008°51'1 1.0
2018-Jan-04 05:30N 37°56' W 008°51'2 4.1
2018-Jan-04 05:00N 37°53' W 008°50'2 4.4
2018-Jan-04 04:31N 37°52' W 008°52'3 6.6
2018-Jan-04 04:00N 37°50' W 008°55'5 9.3
2018-Jan-04 03:30N 37°48' W 009°01'0 0.6
2018-Jan-04 03:00N 37°48' W 009°01'0 0.5
2018-Jan-04 02:30N 37°48' W 009°01'1 1.7
2018-Jan-04 02:00N 37°47' W 009°00'3 5.6
2018-Jan-04 01:30N 37°45' W 008°58'2 4.5
2018-Jan-04 01:00N 37°43' W 008°56'3 6.0
2018-Jan-04 00:30N 37°41' W 008°58'3 5.8
2018-Jan-04 00:00N 37°38' W 008°60'3 5.8
2018-Jan-03 23:30N 37°36' W 009°01'4 8.4
2018-Jan-03 23:00N 37°32' W 009°03'713.1
2018-Jan-03 22:30N 37°26' W 009°07'612.9
2018-Jan-03 22:00N 37°20' W 009°10'612.7
2018-Jan-03 21:30N 37°14' W 009°13'2012.5
2018-Jan-03 19:52N 36°54' W 009°19'2211.9
2018-Jan-03 18:03N 36°42' W 008°56'212.8
2018-Jan-03 17:54N 36°41' W 008°54'712.7
2018-Jan-03 17:21N 36°39' W 008°46'613.2
2018-Jan-03 16:52N 36°36' W 008°39'513.3
2018-Jan-03 16:30N 36°35' W 008°33'813.4
2018-Jan-03 15:53N 36°32' W 008°23'13613.0
2018-Jan-03 05:25N 35°58' W 005°39'511.4
2018-Jan-03 05:00N 35°59' W 005°33'511.1
2018-Jan-03 04:30N 36°01' W 005°27'611.0
2018-Jan-03 04:00N 36°05' W 005°23'4 8.3
2018-Jan-03 03:30N 36°09' W 005°25'1 0.4
2018-Jan-03 01:55N 36°09' W 005°26'0 0.0
2018-Jan-03 01:13N 36°09' W 005°26'0 0.0
2018-Jan-03 00:52N 36°09' W 005°26'0 0.0
2018-Jan-02 22:13N 36°09' W 005°26'0 0.0
2018-Jan-02 21:49N 36°09' W 005°26'2 0.2
2018-Jan-02 12:46N 36°08' W 005°24'3 5.8
2018-Jan-02 12:20N 36°06' W 005°23'1 2.2
2018-Jan-02 12:00N 36°05' W 005°23'0 0.9
2018-Jan-02 11:30N 36°05' W 005°22'3 5.5
2018-Jan-02 11:00N 36°04' W 005°19'0 0.8
2018-Jan-02 10:30N 36°04' W 005°19'3 6.4
2018-Jan-02 10:00N 36°05' W 005°15'611.7
2018-Jan-02 09:31N 36°07' W 005°08'10 1.6
2018-Jan-02 03:04N 36°15' W 005°00'0 1.3
2018-Jan-02 03:00N 36°15' W 005°00'6 0.5
2018-Jan-01 15:00N 36°12' W 005°07'0 0.7
2018-Jan-01 14:30N 36°12' W 005°07'2 3.2
2018-Jan-01 14:00N 36°13' W 005°05'203 8.8
2017-Dec-31 14:52N 37°13' W 001°03'511.6
2017-Dec-31 14:27N 37°16' W 000°58'511.9
2017-Dec-31 14:00N 37°20' W 000°53'611.9
2017-Dec-31 13:30N 37°23' W 000°47'611.7
2017-Dec-31 12:58N 37°28' W 000°41'511.4
2017-Dec-31 12:30N 37°32' W 000°37'510.9
2017-Dec-31 12:00N 37°35' W 000°32'510.5
2017-Dec-31 11:30N 37°40' W 000°29'510.3
2017-Dec-31 11:00N 37°44' W 000°25'610.4
2017-Dec-31 10:24N 37°50' W 000°21'710.5
2017-Dec-31 09:41N 37°56' W 000°16'410.5
2017-Dec-31 09:20N 37°59' W 000°13'410.4
2017-Dec-31 09:00N 38°02' W 000°11'810.3
2017-Dec-31 08:15N 38°08' W 000°05'310.2
2017-Dec-31 07:57N 38°11' W 000°03'510.3
2017-Dec-31 07:30N 38°15' E 000°00'710.5
2017-Dec-31 06:50N 38°20' E 000°05'411.0
2017-Dec-31 06:30N 38°24' E 000°07'611.4
2017-Dec-31 06:00N 38°28' E 000°11'  
2017-Dec-28 23:04N 42°52' E 007°09'118.7
2017-Dec-28 23:00N 42°53' E 007°10'918.7
2017-Dec-28 22:30N 42°58' E 007°21'918.7
2017-Dec-28 22:00N 43°03' E 007°31'6318.5
2017-Dec-28 18:37N 43°50' E 008°29'219.3
2017-Dec-28 18:30N 43°52' E 008°30'1019.3
2017-Dec-28 18:00N 44°01' E 008°35'1019.3
2017-Dec-28 17:30N 44°10' E 008°38'918.8
2017-Dec-28 17:00N 44°20' E 008°41'713.5
2017-Dec-28 16:31N 44°25' E 008°46'1 2.1
2017-Dec-28 16:01N 44°25' E 008°48'0 0.0
2017-Dec-28 15:30N 44°25' E 008°48'0 0.0
2017-Dec-28 15:00N 44°25' E 008°48'0 0.0
2017-Dec-28 14:27N 44°25' E 008°48'0 0.0
2017-Dec-28 13:58N 44°25' E 008°48'0 0.0
2017-Dec-28 13:31N 44°25' E 008°48'0 0.0
2017-Dec-28 13:01N 44°25' E 008°48'0 0.0
2017-Dec-28 12:31N 44°25' E 008°48'0 0.0
2017-Dec-28 12:00N 44°25' E 008°48'0 0.0
2017-Dec-28 11:27N 44°25' E 008°48'0 0.0
2017-Dec-28 11:00N 44°25' E 008°48'0 0.0
2017-Dec-28 10:31N 44°25' E 008°48'0 0.0
2017-Dec-28 10:00N 44°25' E 008°48'0 0.0
2017-Dec-28 09:30N 44°25' E 008°48'0 0.0
2017-Dec-28 09:00N 44°25' E 008°48'0 0.0
2017-Dec-28 08:30N 44°25' E 008°48'0 0.0
2017-Dec-28 07:57N 44°25' E 008°48'0 0.0
2017-Dec-28 07:30N 44°25' E 008°48'0 0.0
2017-Dec-28 07:00N 44°25' E 008°48'0 0.0
2017-Dec-28 06:30N 44°25' E 008°48'0 0.0
2017-Dec-28 06:00N 44°25' E 008°48'0 0.0
2017-Dec-28 05:30N 44°25' E 008°48'0 0.0
2017-Dec-28 05:00N 44°25' E 008°48'0 0.0
2017-Dec-28 04:30N 44°25' E 008°48'0 0.0
2017-Dec-28 04:01N 44°25' E 008°48'0 0.0
2017-Dec-28 03:31N 44°25' E 008°48'0 0.0
2017-Dec-28 03:00N 44°25' E 008°48'0 0.0
2017-Dec-28 02:30N 44°25' E 008°48'0 0.0
2017-Dec-28 02:00N 44°25' E 008°48'0 0.0
2017-Dec-28 01:28N 44°25' E 008°48'0 0.0
2017-Dec-28 01:01N 44°25' E 008°48'0 0.0
2017-Dec-28 00:31N 44°25' E 008°48'0 0.0
2017-Dec-28 00:01N 44°25' E 008°48'0 0.0
2017-Dec-27 23:31N 44°25' E 008°48'0 0.0
2017-Dec-27 22:57N 44°25' E 008°48'0 0.0
2017-Dec-27 22:31N 44°25' E 008°48'0 0.0
2017-Dec-27 22:00N 44°25' E 008°48'0 0.0
2017-Dec-27 21:31N 44°25' E 008°48'0 0.7
2017-Dec-27 21:00N 44°25' E 008°47'3 5.2
2017-Dec-27 20:30N 44°23' E 008°44'5 9.7
2017-Dec-27 20:00N 44°19' E 008°46'1019.0
2017-Dec-27 19:30N 44°15' E 008°58'1019.8
2017-Dec-27 19:00N 44°10' E 009°11'1019.6
2017-Dec-27 18:30N 44°06' E 009°23'1019.4
2017-Dec-27 18:00N 44°02' E 009°36'918.7
2017-Dec-27 17:30N 44°00' E 009°48'5 9.5
2017-Dec-27 17:01N 44°05' E 009°51'2 3.3
2017-Dec-27 16:28N 44°06' E 009°51'0 0.0
2017-Dec-27 15:58N 44°06' E 009°51'0 0.0
2017-Dec-27 15:25N 44°06' E 009°51'0 0.0
2017-Dec-27 14:55N 44°06' E 009°51'0 0.0
2017-Dec-27 14:28N 44°06' E 009°51'0 0.0
2017-Dec-27 13:55N 44°06' E 009°51'0 0.0
2017-Dec-27 13:25N 44°06' E 009°51'0 0.0
2017-Dec-27 12:58N 44°06' E 009°51'0 0.0
2017-Dec-27 12:28N 44°06' E 009°51'0 0.0
2017-Dec-27 11:58N 44°06' E 009°51'0 0.0
2017-Dec-27 11:28N 44°06' E 009°51'0 0.0
2017-Dec-27 10:58N 44°06' E 009°51'0 0.0
2017-Dec-27 10:28N 44°06' E 009°51'0 0.0
2017-Dec-27 09:55N 44°06' E 009°51'0 0.0
2017-Dec-27 09:28N 44°06' E 009°51'0 0.0
2017-Dec-27 08:58N 44°06' E 009°51'0 0.0
2017-Dec-27 08:25N 44°06' E 009°51'0 0.0
2017-Dec-27 07:58N 44°06' E 009°51'0 0.0
2017-Dec-27 07:25N 44°06' E 009°51'0 0.0
2017-Dec-27 06:58N 44°06' E 009°51'0 0.0
2017-Dec-27 06:25N 44°06' E 009°51'0 0.0
2017-Dec-27 05:52N 44°06' E 009°51'0 0.0
2017-Dec-27 05:25N 44°06' E 009°51'0 0.0
2017-Dec-27 04:58N 44°06' E 009°51'0 0.0
2017-Dec-27 04:28N 44°06' E 009°51'0 0.0
2017-Dec-27 03:58N 44°06' E 009°51'0 0.0
2017-Dec-27 03:25N 44°06' E 009°51'0 0.0
2017-Dec-27 02:58N 44°06' E 009°51'0 0.0
2017-Dec-27 02:28N 44°06' E 009°51'0 0.0
2017-Dec-27 01:58N 44°06' E 009°51'0 0.0
2017-Dec-27 01:28N 44°06' E 009°51'0 0.0
2017-Dec-27 00:58N 44°06' E 009°51'0 0.0
2017-Dec-27 00:28N 44°06' E 009°51'0 0.0
2017-Dec-26 23:58N 44°06' E 009°51'0 0.0
2017-Dec-26 23:28N 44°06' E 009°51'0 0.0
2017-Dec-26 22:58N 44°06' E 009°51'0 0.0
2017-Dec-26 22:28N 44°06' E 009°51'0 0.0
2017-Dec-26 21:55N 44°06' E 009°51'0 0.0
2017-Dec-26 21:28N 44°06' E 009°51'0 0.0
2017-Dec-26 20:58N 44°06' E 009°51'0 0.0
2017-Dec-26 20:28N 44°06' E 009°51'0 0.0
2017-Dec-26 19:58N 44°06' E 009°51'0 0.0
2017-Dec-26 19:28N 44°06' E 009°51'0 0.0
2017-Dec-26 18:58N 44°06' E 009°51'0 0.0
2017-Dec-26 18:28N 44°06' E 009°51'0 0.1
2017-Dec-26 17:58N 44°06' E 009°51'0 0.1
2017-Dec-26 17:28N 44°06' E 009°51'0 0.0
2017-Dec-26 16:55N 44°06' E 009°51'0 0.0
2017-Dec-26 16:28N 44°06' E 009°51'0 0.0
2017-Dec-26 15:58N 44°06' E 009°51'0 0.0
2017-Dec-26 15:28N 44°06' E 009°51'0 0.0
2017-Dec-26 14:58N 44°06' E 009°51'0 0.0
2017-Dec-26 14:28N 44°06' E 009°51'0 0.0
2017-Dec-26 13:58N 44°06' E 009°51'0 0.0
2017-Dec-26 13:25N 44°06' E 009°51'0 0.0
2017-Dec-26 12:58N 44°06' E 009°51'0 0.0
2017-Dec-26 12:22N 44°06' E 009°51'0 0.0
2017-Dec-26 11:58N 44°06' E 009°51'0 0.0
2017-Dec-26 11:28N 44°06' E 009°51'0 0.0
2017-Dec-26 10:55N 44°06' E 009°51'0 0.0
2017-Dec-26 10:28N 44°06' E 009°51'0 0.0
2017-Dec-26 09:58N 44°06' E 009°51'0 0.0
2017-Dec-26 09:22N 44°06' E 009°51'0 0.0
2017-Dec-26 08:58N 44°06' E 009°51'0 0.0
2017-Dec-26 08:22N 44°06' E 009°51'0 0.0
2017-Dec-26 07:58N 44°06' E 009°51'0 0.0
2017-Dec-26 07:28N 44°06' E 009°51'0 0.0
2017-Dec-26 06:58N 44°06' E 009°51'0 0.0
2017-Dec-26 06:28N 44°06' E 009°51'0 0.0
2017-Dec-26 05:58N 44°06' E 009°51'0 0.0
2017-Dec-26 05:28N 44°06' E 009°51'0 0.0
2017-Dec-26 04:58N 44°06' E 009°51'0 0.0
2017-Dec-26 04:28N 44°06' E 009°51'0 0.0
2017-Dec-26 03:58N 44°06' E 009°51'0 0.0
2017-Dec-26 03:28N 44°06' E 009°51'0 0.0
2017-Dec-26 02:58N 44°06' E 009°51'0 0.0
2017-Dec-26 02:28N 44°06' E 009°51'0 0.0
2017-Dec-26 01:58N 44°06' E 009°51'0 0.0
2017-Dec-26 01:25N 44°06' E 009°51'0 0.0
2017-Dec-26 00:58N 44°06' E 009°51'0 0.1
2017-Dec-26 00:24N 44°06' E 009°51'1 3.3
2017-Dec-26 00:00N 44°05' E 009°51'4 7.7
2017-Dec-25 23:27N 44°02' E 009°54'2 4.8
2017-Dec-25 23:00N 44°00' E 009°57'  
Track history (hours):
 
Tides and Currents Weather Stations Pressure Air Temp Water Temp Dewpoint Dewpoint Depression Visibility Wind Speed Wind Dir Waves Ship Positions

Sealand Washington

Last reported at 2018-Jan-04 22:59 UTC. Time now 2018-Jan-19 05:58 UTC.
Position N 37°47' W 009°38'.
Warning: this ship's position is 14 days out of date.

Length 304 m; draft 13.9 m.

Type: Ship (hazmat cat A). MMSI: 229577000.

Date/timePositionNaut miles runAvg speedWind from/ knotsBaromVisibWave heightAir tempDewpointWater temp
2018-Jan-04 22:59N 37°47' W 009°38'917.9
2018-Jan-04 22:30N 37°49' W 009°28'917.9
2018-Jan-04 22:00N 37°51' W 009°17'917.7
2018-Jan-04 21:30N 37°53' W 009°06'816.9
2018-Jan-04 21:00N 37°55' W 008°55'4 7.6
2018-Jan-04 20:30N 37°56' W 008°51'0 0.2
2018-Jan-04 20:00N 37°56' W 008°51'0 0.0
2018-Jan-04 19:30N 37°56' W 008°51'0 0.0
2018-Jan-04 19:00N 37°56' W 008°51'0 0.0
2018-Jan-04 18:30N 37°56' W 008°51'0 0.0
2018-Jan-04 18:00N 37°56' W 008°51'0 0.0
2018-Jan-04 17:30N 37°56' W 008°51'0 0.0
2018-Jan-04 17:00N 37°56' W 008°51'0 0.0
2018-Jan-04 16:30N 37°56' W 008°51'0 0.0
2018-Jan-04 16:01N 37°56' W 008°51'0 0.0
2018-Jan-04 15:30N 37°56' W 008°51'0 0.0
2018-Jan-04 15:00N 37°56' W 008°51'0 0.0
2018-Jan-04 14:31N 37°56' W 008°51'0 0.0
2018-Jan-04 14:01N 37°56' W 008°51'0 0.0
2018-Jan-04 13:30N 37°56' W 008°51'0 0.0
2018-Jan-04 13:01N 37°56' W 008°51'0 0.0
2018-Jan-04 12:30N 37°56' W 008°51'0 0.0
2018-Jan-04 12:00N 37°56' W 008°51'0 0.0
2018-Jan-04 11:30N 37°56' W 008°51'0 0.0
2018-Jan-04 11:00N 37°56' W 008°51'0 0.0
2018-Jan-04 10:30N 37°56' W 008°51'0 0.0
2018-Jan-04 10:00N 37°56' W 008°51'0 0.0
2018-Jan-04 09:30N 37°56' W 008°51'0 0.0
2018-Jan-04 09:00N 37°56' W 008°51'0 0.0
2018-Jan-04 08:31N 37°56' W 008°51'0 0.0
2018-Jan-04 08:00N 37°56' W 008°51'0 0.0
2018-Jan-04 07:31N 37°56' W 008°51'0 0.0
2018-Jan-04 07:00N 37°56' W 008°51'0 0.0
2018-Jan-04 06:31N 37°56' W 008°51'0 0.0
2018-Jan-04 06:00N 37°56' W 008°51'1 1.0
2018-Jan-04 05:30N 37°56' W 008°51'2 4.1
2018-Jan-04 05:00N 37°53' W 008°50'2 4.4
2018-Jan-04 04:31N 37°52' W 008°52'3 6.6
2018-Jan-04 04:00N 37°50' W 008°55'5 9.3
2018-Jan-04 03:30N 37°48' W 009°01'0 0.6
2018-Jan-04 03:00N 37°48' W 009°01'0 0.5
2018-Jan-04 02:30N 37°48' W 009°01'1 1.7
2018-Jan-04 02:00N 37°47' W 009°00'3 5.6
2018-Jan-04 01:30N 37°45' W 008°58'2 4.5
2018-Jan-04 01:00N 37°43' W 008°56'3 6.0
2018-Jan-04 00:30N 37°41' W 008°58'3 5.8
2018-Jan-04 00:00N 37°38' W 008°60'3 5.8
2018-Jan-03 23:30N 37°36' W 009°01'4 8.4
2018-Jan-03 23:00N 37°32' W 009°03'713.1
2018-Jan-03 22:30N 37°26' W 009°07'612.9
2018-Jan-03 22:00N 37°20' W 009°10'612.7
2018-Jan-03 21:30N 37°14' W 009°13'2012.5
2018-Jan-03 19:52N 36°54' W 009°19'2211.9
2018-Jan-03 18:03N 36°42' W 008°56'212.8
2018-Jan-03 17:54N 36°41' W 008°54'712.7
2018-Jan-03 17:21N 36°39' W 008°46'613.2
2018-Jan-03 16:52N 36°36' W 008°39'513.3
2018-Jan-03 16:30N 36°35' W 008°33'813.4
2018-Jan-03 15:53N 36°32' W 008°23'13613.0
2018-Jan-03 05:25N 35°58' W 005°39'511.4
2018-Jan-03 05:00N 35°59' W 005°33'511.1
2018-Jan-03 04:30N 36°01' W 005°27'611.0
2018-Jan-03 04:00N 36°05' W 005°23'4 8.3
2018-Jan-03 03:30N 36°09' W 005°25'1 0.4
2018-Jan-03 01:55N 36°09' W 005°26'0 0.0
2018-Jan-03 01:13N 36°09' W 005°26'0 0.0
2018-Jan-03 00:52N 36°09' W 005°26'0 0.0
2018-Jan-02 22:13N 36°09' W 005°26'0 0.0
2018-Jan-02 21:49N 36°09' W 005°26'2 0.2
2018-Jan-02 12:46N 36°08' W 005°24'3 5.8
2018-Jan-02 12:20N 36°06' W 005°23'1 2.2
2018-Jan-02 12:00N 36°05' W 005°23'0 0.9
2018-Jan-02 11:30N 36°05' W 005°22'3 5.5
2018-Jan-02 11:00N 36°04' W 005°19'0 0.8
2018-Jan-02 10:30N 36°04' W 005°19'3 6.4
2018-Jan-02 10:00N 36°05' W 005°15'611.7
2018-Jan-02 09:31N 36°07' W 005°08'10 1.6
2018-Jan-02 03:04N 36°15' W 005°00'0 1.3
2018-Jan-02 03:00N 36°15' W 005°00'6 0.5
2018-Jan-01 15:00N 36°12' W 005°07'0 0.7
2018-Jan-01 14:30N 36°12' W 005°07'2 3.2
2018-Jan-01 14:00N 36°13' W 005°05'203 8.8
2017-Dec-31 14:52N 37°13' W 001°03'511.6
2017-Dec-31 14:27N 37°16' W 000°58'511.9
2017-Dec-31 14:00N 37°20' W 000°53'611.9
2017-Dec-31 13:30N 37°23' W 000°47'611.7
2017-Dec-31 12:58N 37°28' W 000°41'511.4
2017-Dec-31 12:30N 37°32' W 000°37'510.9
2017-Dec-31 12:00N 37°35' W 000°32'510.5
2017-Dec-31 11:30N 37°40' W 000°29'510.3
2017-Dec-31 11:00N 37°44' W 000°25'610.4
2017-Dec-31 10:24N 37°50' W 000°21'710.5
2017-Dec-31 09:41N 37°56' W 000°16'410.5
2017-Dec-31 09:20N 37°59' W 000°13'410.4
2017-Dec-31 09:00N 38°02' W 000°11'810.3
2017-Dec-31 08:15N 38°08' W 000°05'310.2
2017-Dec-31 07:57N 38°11' W 000°03'510.3
2017-Dec-31 07:30N 38°15' E 000°00'710.5
2017-Dec-31 06:50N 38°20' E 000°05'411.0
2017-Dec-31 06:30N 38°24' E 000°07'611.4
2017-Dec-31 06:00N 38°28' E 000°11'  
2017-Dec-28 23:04N 42°52' E 007°09'118.7
2017-Dec-28 23:00N 42°53' E 007°10'918.7
2017-Dec-28 22:30N 42°58' E 007°21'918.7
2017-Dec-28 22:00N 43°03' E 007°31'6318.5
2017-Dec-28 18:37N 43°50' E 008°29'219.3
2017-Dec-28 18:30N 43°52' E 008°30'1019.3
2017-Dec-28 18:00N 44°01' E 008°35'1019.3
2017-Dec-28 17:30N 44°10' E 008°38'918.8
2017-Dec-28 17:00N 44°20' E 008°41'713.5
2017-Dec-28 16:31N 44°25' E 008°46'1 2.1
2017-Dec-28 16:01N 44°25' E 008°48'0 0.0
2017-Dec-28 15:30N 44°25' E 008°48'0 0.0
2017-Dec-28 15:00N 44°25' E 008°48'0 0.0
2017-Dec-28 14:27N 44°25' E 008°48'0 0.0
2017-Dec-28 13:58N 44°25' E 008°48'0 0.0
2017-Dec-28 13:31N 44°25' E 008°48'0 0.0
2017-Dec-28 13:01N 44°25' E 008°48'0 0.0
2017-Dec-28 12:31N 44°25' E 008°48'0 0.0
2017-Dec-28 12:00N 44°25' E 008°48'0 0.0
2017-Dec-28 11:27N 44°25' E 008°48'0 0.0
2017-Dec-28 11:00N 44°25' E 008°48'0 0.0
2017-Dec-28 10:31N 44°25' E 008°48'0 0.0
2017-Dec-28 10:00N 44°25' E 008°48'0 0.0
2017-Dec-28 09:30N 44°25' E 008°48'0 0.0
2017-Dec-28 09:00N 44°25' E 008°48'0 0.0
2017-Dec-28 08:30N 44°25' E 008°48'0 0.0
2017-Dec-28 07:57N 44°25' E 008°48'0 0.0
2017-Dec-28 07:30N 44°25' E 008°48'0 0.0
2017-Dec-28 07:00N 44°25' E 008°48'0 0.0
2017-Dec-28 06:30N 44°25' E 008°48'0 0.0
2017-Dec-28 06:00N 44°25' E 008°48'0 0.0
2017-Dec-28 05:30N 44°25' E 008°48'0 0.0
2017-Dec-28 05:00N 44°25' E 008°48'0 0.0
2017-Dec-28 04:30N 44°25' E 008°48'0 0.0
2017-Dec-28 04:01N 44°25' E 008°48'0 0.0
2017-Dec-28 03:31N 44°25' E 008°48'0 0.0
2017-Dec-28 03:00N 44°25' E 008°48'0 0.0
2017-Dec-28 02:30N 44°25' E 008°48'0 0.0
2017-Dec-28 02:00N 44°25' E 008°48'0 0.0
2017-Dec-28 01:28N 44°25' E 008°48'0 0.0
2017-Dec-28 01:01N 44°25' E 008°48'0 0.0
2017-Dec-28 00:31N 44°25' E 008°48'0 0.0
2017-Dec-28 00:01N 44°25' E 008°48'0 0.0
2017-Dec-27 23:31N 44°25' E 008°48'0 0.0
2017-Dec-27 22:57N 44°25' E 008°48'0 0.0
2017-Dec-27 22:31N 44°25' E 008°48'0 0.0
2017-Dec-27 22:00N 44°25' E 008°48'0 0.0
2017-Dec-27 21:31N 44°25' E 008°48'0 0.7
2017-Dec-27 21:00N 44°25' E 008°47'3 5.2
2017-Dec-27 20:30N 44°23' E 008°44'5 9.7
2017-Dec-27 20:00N 44°19' E 008°46'1019.0
2017-Dec-27 19:30N 44°15' E 008°58'1019.8
2017-Dec-27 19:00N 44°10' E 009°11'1019.6
2017-Dec-27 18:30N 44°06' E 009°23'1019.4
2017-Dec-27 18:00N 44°02' E 009°36'918.7
2017-Dec-27 17:30N 44°00' E 009°48'5 9.5
2017-Dec-27 17:01N 44°05' E 009°51'2 3.3
2017-Dec-27 16:28N 44°06' E 009°51'0 0.0
2017-Dec-27 15:58N 44°06' E 009°51'0 0.0
2017-Dec-27 15:25N 44°06' E 009°51'0 0.0
2017-Dec-27 14:55N 44°06' E 009°51'0 0.0
2017-Dec-27 14:28N 44°06' E 009°51'0 0.0
2017-Dec-27 13:55N 44°06' E 009°51'0 0.0
2017-Dec-27 13:25N 44°06' E 009°51'0 0.0
2017-Dec-27 12:58N 44°06' E 009°51'0 0.0
2017-Dec-27 12:28N 44°06' E 009°51'0 0.0
2017-Dec-27 11:58N 44°06' E 009°51'0 0.0
2017-Dec-27 11:28N 44°06' E 009°51'0 0.0
2017-Dec-27 10:58N 44°06' E 009°51'0 0.0
2017-Dec-27 10:28N 44°06' E 009°51'0 0.0
2017-Dec-27 09:55N 44°06' E 009°51'0 0.0
2017-Dec-27 09:28N 44°06' E 009°51'0 0.0
2017-Dec-27 08:58N 44°06' E 009°51'0 0.0
2017-Dec-27 08:25N 44°06' E 009°51'0 0.0
2017-Dec-27 07:58N 44°06' E 009°51'0 0.0
2017-Dec-27 07:25N 44°06' E 009°51'0 0.0
2017-Dec-27 06:58N 44°06' E 009°51'0 0.0
2017-Dec-27 06:25N 44°06' E 009°51'0 0.0
2017-Dec-27 05:52N 44°06' E 009°51'0 0.0
2017-Dec-27 05:25N 44°06' E 009°51'0 0.0
2017-Dec-27 04:58N 44°06' E 009°51'0 0.0
2017-Dec-27 04:28N 44°06' E 009°51'0 0.0
2017-Dec-27 03:58N 44°06' E 009°51'0 0.0
2017-Dec-27 03:25N 44°06' E 009°51'0 0.0
2017-Dec-27 02:58N 44°06' E 009°51'0 0.0
2017-Dec-27 02:28N 44°06' E 009°51'0 0.0
2017-Dec-27 01:58N 44°06' E 009°51'0 0.0
2017-Dec-27 01:28N 44°06' E 009°51'0 0.0
2017-Dec-27 00:58N 44°06' E 009°51'0 0.0
2017-Dec-27 00:28N 44°06' E 009°51'0 0.0
2017-Dec-26 23:58N 44°06' E 009°51'0 0.0
2017-Dec-26 23:28N 44°06' E 009°51'0 0.0
2017-Dec-26 22:58N 44°06' E 009°51'0 0.0
2017-Dec-26 22:28N 44°06' E 009°51'0 0.0
2017-Dec-26 21:55N 44°06' E 009°51'0 0.0
2017-Dec-26 21:28N 44°06' E 009°51'0 0.0
2017-Dec-26 20:58N 44°06' E 009°51'0 0.0
2017-Dec-26 20:28N 44°06' E 009°51'0 0.0
2017-Dec-26 19:58N 44°06' E 009°51'0 0.0
2017-Dec-26 19:28N 44°06' E 009°51'0 0.0
2017-Dec-26 18:58N 44°06' E 009°51'0 0.0
2017-Dec-26 18:28N 44°06' E 009°51'0 0.1
2017-Dec-26 17:58N 44°06' E 009°51'0 0.1
2017-Dec-26 17:28N 44°06' E 009°51'0 0.0
2017-Dec-26 16:55N 44°06' E 009°51'0 0.0
2017-Dec-26 16:28N 44°06' E 009°51'0 0.0
2017-Dec-26 15:58N 44°06' E 009°51'0 0.0
2017-Dec-26 15:28N 44°06' E 009°51'0 0.0
2017-Dec-26 14:58N 44°06' E 009°51'0 0.0
2017-Dec-26 14:28N 44°06' E 009°51'0 0.0
2017-Dec-26 13:58N 44°06' E 009°51'0 0.0
2017-Dec-26 13:25N 44°06' E 009°51'0 0.0
2017-Dec-26 12:58N 44°06' E 009°51'0 0.0
2017-Dec-26 12:22N 44°06' E 009°51'0 0.0
2017-Dec-26 11:58N 44°06' E 009°51'0 0.0
2017-Dec-26 11:28N 44°06' E 009°51'0 0.0
2017-Dec-26 10:55N 44°06' E 009°51'0 0.0
2017-Dec-26 10:28N 44°06' E 009°51'0 0.0
2017-Dec-26 09:58N 44°06' E 009°51'0 0.0
2017-Dec-26 09:22N 44°06' E 009°51'0 0.0
2017-Dec-26 08:58N 44°06' E 009°51'0 0.0
2017-Dec-26 08:22N 44°06' E 009°51'0 0.0
2017-Dec-26 07:58N 44°06' E 009°51'0 0.0
2017-Dec-26 07:28N 44°06' E 009°51'0 0.0
2017-Dec-26 06:58N 44°06' E 009°51'0 0.0
2017-Dec-26 06:28N 44°06' E 009°51'0 0.0
2017-Dec-26 05:58N 44°06' E 009°51'0 0.0
2017-Dec-26 05:28N 44°06' E 009°51'0 0.0
2017-Dec-26 04:58N 44°06' E 009°51'0 0.0
2017-Dec-26 04:28N 44°06' E 009°51'0 0.0
2017-Dec-26 03:58N 44°06' E 009°51'0 0.0
2017-Dec-26 03:28N 44°06' E 009°51'0 0.0
2017-Dec-26 02:58N 44°06' E 009°51'0 0.0
2017-Dec-26 02:28N 44°06' E 009°51'0 0.0
2017-Dec-26 01:58N 44°06' E 009°51'0 0.0
2017-Dec-26 01:25N 44°06' E 009°51'0 0.0
2017-Dec-26 00:58N 44°06' E 009°51'0 0.1
2017-Dec-26 00:24N 44°06' E 009°51'1 3.3
2017-Dec-26 00:00N 44°05' E 009°51'4 7.7
2017-Dec-25 23:27N 44°02' E 009°54'2 4.8
2017-Dec-25 23:00N 44°00' E 009°57'  

Dump ship's entire track history